Time;durP1;ratioP1;P1;durP2;ratioP2;P2;SDS_P1;SDS_P2;PMS_P1;PMS_P2;Temp;Humidity;BMP_temperature;BMP_pressure;BME280_temperature;BME280_humidity;BME280_pressure;Samples;Min_cycle;Max_cycle;Signal;HPM_P1;HPM_P2
2022/10/30 00:01:56;;;;;;;20.83;6.60;;;;;;;15.70;100.00;101561.41;5084370;28;20032;-68
2022/10/30 00:04:21;;;;;;;20.40;6.57;;;;;;;15.69;100.00;101567.59;5080247;28;20028;-68
2022/10/30 00:06:48;;;;;;;16.58;7.28;;;;;;;15.65;100.00;101563.13;5086242;28;20062;-68
2022/10/30 00:09:13;;;;;;;18.75;7.13;;;;;;;15.61;100.00;101566.66;5086668;28;20475;-67
2022/10/30 00:11:40;;;;;;;26.85;8.00;;;;;;;15.61;100.00;101571.94;5075514;28;20027;-68
2022/10/30 00:14:05;;;;;;;24.83;7.95;;;;;;;15.58;100.00;101571.94;5089108;28;20465;-68
2022/10/30 00:16:30;;;;;;;18.60;6.95;;;;;;;15.53;100.00;101569.22;5088069;28;20032;-69
2022/10/30 00:18:56;;;;;;;16.70;6.90;;;;;;;15.48;100.00;101566.56;5092042;28;20028;-68
2022/10/30 00:21:21;;;;;;;21.63;7.47;;;;;;;15.46;100.00;101578.94;5088601;28;20107;-68
2022/10/30 00:23:50;;;;;;;25.40;7.70;;;;;;;15.42;100.00;101577.09;5088230;28;20031;-68
2022/10/30 00:26:16;;;;;;;22.20;7.60;;;;;;;15.42;100.00;101571.78;5091108;28;20028;-68
2022/10/30 00:28:42;;;;;;;16.95;6.95;;;;;;;15.37;100.00;101581.50;5090826;28;20475;-68
2022/10/30 00:31:07;;;;;;;19.55;7.63;;;;;;;15.32;100.00;101583.22;5082676;28;20106;-68
2022/10/30 00:33:33;;;;;;;17.95;7.18;;;;;;;15.31;100.00;101578.78;5084490;28;20376;-67
2022/10/30 00:35:59;;;;;;;18.08;8.35;;;;;;;15.27;100.00;101582.28;5088875;28;20039;-68
2022/10/30 00:38:24;;;;;;;18.20;8.23;;;;;;;15.20;100.00;101581.34;5082312;28;20050;-68
2022/10/30 00:40:49;;;;;;;18.92;7.63;;;;;;;15.12;100.00;101583.91;5081160;28;20598;-67
2022/10/30 00:43:28;;;;;;;24.63;7.63;;;;;;;15.03;100.00;101583.84;5081976;28;20475;-67
2022/10/30 00:45:55;;;;;;;17.38;8.23;;;;;;;14.97;100.00;101583.75;5091085;28;20697;-68
2022/10/30 00:48:24;;;;;;;21.48;7.93;;;;;;;14.89;100.00;101574.84;5081895;28;20472;-68
2022/10/30 00:50:52;;;;;;;25.58;7.60;;;;;;;14.80;100.00;101575.66;5090838;28;20483;-68
2022/10/30 00:53:19;;;;;;;17.95;7.68;;;;;;;14.74;100.00;101576.44;5086488;28;20020;-68
2022/10/30 00:55:56;;;;;;;20.70;8.00;;;;;;;14.71;100.00;101576.41;5090478;28;20111;-68
2022/10/30 00:58:36;;;;;;;14.20;7.90;;;;;;;14.71;100.00;101581.72;5053058;28;1071524;-68
2022/10/30 01:01:05;;;;;;;14.52;7.70;;;;;;;14.70;100.00;101573.75;5089160;28;20040;-68
2022/10/30 01:03:32;;;;;;;14.98;7.72;;;;;;;14.69;100.00;101583.47;5089273;28;20035;-68
2022/10/30 01:06:01;;;;;;;17.80;8.43;;;;;;;14.65;100.00;101582.53;5092782;28;20035;-67
2022/10/30 01:08:27;;;;;;;24.13;8.30;;;;;;;14.65;100.00;101586.97;5088783;28;20146;-67
2022/10/30 01:10:53;;;;;;;24.05;9.32;;;;;;;14.66;100.00;101588.72;5090660;28;20416;-68
2022/10/30 01:13:21;;;;;;;18.63;7.93;;;;;;;14.65;100.00;101587.84;5090075;28;20472;-68
2022/10/30 01:16:24;;;;;;;18.02;8.38;;;;;;;14.61;100.00;101593.03;5090255;28;20028;-68
2022/10/30 01:19:17;;;;;;;15.70;8.25;;;;;;;14.56;100.00;101602.72;5077159;28;20024;-68
2022/10/30 01:21:58;;;;;;;23.40;8.23;;;;;;;14.50;100.00;101604.41;5076068;28;20047;-68
2022/10/30 01:24:26;;;;;;;19.95;8.80;;;;;;;14.49;100.00;101602.63;5080806;28;20111;-67
2022/10/30 01:27:13;;;;;;;13.68;8.13;;;;;;;14.43;100.00;101591.97;5090947;28;20032;-67
2022/10/30 01:30:05;;;;;;;17.23;7.70;;;;;;;14.44;100.00;101599.00;5082886;28;20032;-69
2022/10/30 01:32:58;;;;;;;16.90;7.78;;;;;;;14.42;100.00;101599.88;5082706;28;20044;-68
2022/10/30 01:35:46;;;;;;;18.50;7.80;;;;;;;14.40;100.00;101594.56;5086416;28;20032;-69
2022/10/30 01:38:11;;;;;;;26.63;8.45;;;;;;;14.35;100.00;101593.59;5070980;28;20024;-67
2022/10/30 01:40:37;;;;;;;22.85;8.82;;;;;;;14.34;100.00;101599.78;5083716;28;20361;-68
2022/10/30 01:43:02;;;;;;;21.17;8.90;;;;;;;14.31;100.00;101602.38;5073859;28;20075;-68
2022/10/30 01:45:59;;;;;;;16.20;7.72;;;;;;;14.29;100.00;101604.13;5075867;28;20043;-68
2022/10/30 01:48:24;;;;;;;23.42;9.55;;;;;;;14.25;100.00;101605.81;5081598;28;20065;-67
2022/10/30 01:51:11;;;;;;;23.27;8.70;;;;;;;14.22;100.00;101599.63;5084178;28;20031;-67
2022/10/30 01:53:56;;;;;;;19.85;7.80;;;;;;;14.15;100.00;101599.53;5089881;28;20368;-67
2022/10/30 01:56:38;;;;;;;21.52;8.27;;;;;;;14.13;100.00;101593.34;5093583;28;20111;-65
2022/10/30 01:59:17;;;;;;;22.13;8.45;;;;;;;14.10;100.00;101595.03;5091493;28;20049;-68
2022/10/30 02:01:44;;;;;;;17.70;7.85;;;;;;;14.10;100.00;101605.63;5092680;28;20036;-67
2022/10/30 02:04:12;;;;;;;18.42;8.27;;;;;;;14.08;100.00;101602.06;5094477;28;20047;-67
2022/10/30 02:06:37;;;;;;;21.20;9.02;;;;;;;14.06;100.00;101599.38;5089357;28;20024;-68
2022/10/30 02:09:04;;;;;;;19.85;7.75;;;;;;;14.05;100.00;101604.66;5084831;28;20028;-67
2022/10/30 02:11:32;;;;;;;21.13;8.50;;;;;;;14.02;100.00;101600.22;5090186;28;20028;-68
2022/10/30 02:14:02;;;;;;;16.77;8.38;;;;;;;14.04;100.00;101598.50;5094159;28;20031;-68
2022/10/30 02:16:27;;;;;;;18.42;8.82;;;;;;;14.03;100.00;101596.72;5094496;28;20567;-69
2022/10/30 02:18:52;;;;;;;26.63;9.65;;;;;;;14.05;100.00;101605.53;5076130;28;20029;-68
2022/10/30 02:21:18;;;;;;;18.95;8.50;;;;;;;14.05;100.00;101596.72;5091149;28;20023;-68
2022/10/30 02:23:43;;;;;;;19.08;7.82;;;;;;;14.03;100.00;101596.72;5094403;28;20051;-67
2022/10/30 02:26:09;;;;;;;22.40;9.02;;;;;;;13.99;100.00;101609.00;5086222;28;20028;-68
2022/10/30 02:28:34;;;;;;;15.40;8.05;;;;;;;13.97;100.00;101607.19;5089774;28;20028;-69
2022/10/30 02:30:59;;;;;;;17.20;8.98;;;;;;;13.94;100.00;101612.44;5092813;28;20027;-68
2022/10/30 02:33:25;;;;;;;24.33;8.50;;;;;;;13.89;100.00;101604.44;5093094;28;20032;-67
2022/10/30 02:35:50;;;;;;;17.02;8.30;;;;;;;13.88;100.00;101613.25;5082250;28;20111;-67
2022/10/30 02:38:16;;;;;;;18.80;7.93;;;;;;;13.85;100.00;101607.00;5092992;28;20110;-67
2022/10/30 02:40:41;;;;;;;16.02;8.30;;;;;;;13.79;100.00;101615.75;5088103;28;20051;-68
2022/10/30 02:43:06;;;;;;;23.42;8.73;;;;;;;13.75;100.00;101611.28;5094226;28;20020;-69
2022/10/30 02:45:32;;;;;;;20.25;8.57;;;;;;;13.72;100.00;101612.09;5092168;28;20040;-67
2022/10/30 02:48:00;;;;;;;21.65;8.73;;;;;;;13.68;100.00;101625.28;5094941;28;20035;-68
2022/10/30 02:50:26;;;;;;;16.50;9.25;;;;;;;13.65;100.00;101629.63;5080773;28;20040;-70
2022/10/30 02:52:51;;;;;;;15.88;7.95;;;;;;;13.64;100.00;101627.84;5082128;28;20028;-67
2022/10/30 02:55:16;;;;;;;19.15;9.32;;;;;;;13.62;100.00;101628.72;5085427;28;20028;-68
2022/10/30 02:57:42;;;;;;;27.02;8.95;;;;;;;13.57;100.00;101617.16;5082357;28;20484;-67
2022/10/30 03:00:08;;;;;;;18.23;8.73;;;;;;;13.56;100.00;101620.66;5077148;28;20027;-67
2022/10/30 03:02:33;;;;;;;15.88;8.32;;;;;;;13.53;100.00;101621.50;5084553;28;20084;-68
2022/10/30 03:04:58;;;;;;;19.40;8.00;;;;;;;13.51;100.00;101606.47;5084353;28;20031;-67
2022/10/30 03:07:23;;;;;;;24.55;8.57;;;;;;;13.48;100.00;101607.31;5092649;28;20516;-67
2022/10/30 03:09:50;;;;;;;16.88;8.10;;;;;;;13.48;100.00;101612.59;5088007;28;20039;-67
2022/10/30 03:12:16;;;;;;;16.75;7.75;;;;;;;13.42;100.00;101613.38;5091031;28;20032;-68
2022/10/30 03:14:41;;;;;;;15.43;7.72;;;;;;;13.40;100.00;101601.91;5085886;28;20169;-68
2022/10/30 03:17:06;;;;;;;19.38;8.90;;;;;;;13.36;100.00;101597.44;5088784;28;20545;-68
2022/10/30 03:19:32;;;;;;;18.20;8.55;;;;;;;13.39;100.00;101591.28;5092997;28;20035;-67
2022/10/30 03:21:57;;;;;;;17.55;9.35;;;;;;;13.43;100.00;101590.47;5079262;28;20115;-67
2022/10/30 03:24:23;;;;;;;19.65;9.07;;;;;;;13.41;100.00;101598.38;5082959;28;20032;-67
2022/10/30 03:26:48;;;;;;;14.65;8.27;;;;;;;13.35;100.00;101600.91;5093161;28;20391;-67
2022/10/30 03:29:13;;;;;;;18.73;8.68;;;;;;;13.30;100.00;101599.94;5090701;28;20110;-68
2022/10/30 03:31:39;;;;;;;24.27;9.65;;;;;;;13.28;100.00;101599.00;5076830;28;20029;-67
2022/10/30 03:34:04;;;;;;;20.55;8.68;;;;;;;13.26;100.00;101596.31;5090560;28;20062;-70
2022/10/30 03:36:29;;;;;;;20.33;9.23;;;;;;;13.23;100.00;101598.03;5093322;28;20034;-69
2022/10/30 03:38:55;;;;;;;17.90;8.80;;;;;;;13.18;100.00;101607.63;5093344;28;20056;-69
2022/10/30 03:41:20;;;;;;;17.02;8.65;;;;;;;13.20;100.00;101584.75;5092577;28;20039;-67
2022/10/30 03:43:46;;;;;;;22.77;10.13;;;;;;;13.18;100.00;101590.03;5091010;28;20072;-67
2022/10/30 03:46:11;;;;;;;19.17;8.85;;;;;;;13.16;100.00;101597.91;5080772;28;20063;-68
2022/10/30 03:48:37;;;;;;;22.02;10.13;;;;;;;13.13;100.00;101596.97;5073653;28;20035;-67
2022/10/30 03:51:02;;;;;;;20.08;9.55;;;;;;;13.09;100.00;101603.97;5088656;28;20063;-68
2022/10/30 03:53:28;;;;;;;24.55;9.13;;;;;;;13.07;100.00;101610.97;5090073;28;20024;-68
2022/10/30 03:55:59;;;;;;;26.05;10.48;;;;;;;13.06;100.00;101609.22;5084746;28;20035;-67
2022/10/30 03:58:25;;;;;;;22.83;9.40;;;;;;;13.05;100.00;101602.13;5073211;28;20044;-68
2022/10/30 04:00:51;;;;;;;23.08;8.90;;;;;;;13.04;100.00;101613.56;5082608;28;20099;-68
2022/10/30 04:03:16;;;;;;;19.23;10.05;;;;;;;13.03;100.00;101609.13;5085401;28;20515;-68
2022/10/30 04:05:41;;;;;;;16.13;9.50;;;;;;;13.03;100.00;101608.25;5082399;28;20065;-68
2022/10/30 04:08:11;;;;;;;20.27;9.32;;;;;;;13.08;100.00;101607.47;5082386;28;20016;-69
2022/10/30 04:10:36;;;;;;;24.95;9.70;;;;;;;13.10;100.00;101600.47;5081316;28;20077;-69
2022/10/30 04:13:06;;;;;;;19.67;9.43;;;;;;;13.11;100.00;101604.00;5085169;28;20107;-67
2022/10/30 04:15:32;;;;;;;26.45;9.57;;;;;;;13.08;100.00;101610.09;5090203;28;20455;-68
2022/10/30 04:17:57;;;;;;;19.23;8.98;;;;;;;13.10;100.00;101611.03;5089788;28;20027;-68
2022/10/30 04:20:24;;;;;;;22.58;8.80;;;;;;;13.07;100.00;101610.97;5085542;28;20154;-67
2022/10/30 04:22:58;;;;;;;17.60;9.30;;;;;;;13.01;100.00;101609.94;5083743;28;20059;-68
2022/10/30 04:25:24;;;;;;;22.88;9.70;;;;;;;13.03;100.00;101603.84;5080144;28;20035;-68
2022/10/30 04:27:51;;;;;;;24.52;10.05;;;;;;;13.06;100.00;101598.63;5085874;28;20031;-68
2022/10/30 04:30:20;;;;;;;29.85;11.85;;;;;;;13.07;100.00;101604.81;5086938;28;20027;-68
2022/10/30 04:32:56;;;;;;;22.63;11.63;;;;;;;13.08;100.00;101607.47;5090569;28;20077;-67
2022/10/30 04:35:24;;;;;;;24.98;11.55;;;;;;;13.09;100.00;101593.41;5092385;28;20028;-68
2022/10/30 04:37:57;;;;;;;26.38;10.60;;;;;;;13.11;100.00;101590.78;5092498;28;20169;-70
2022/10/30 04:40:24;;;;;;;23.15;12.02;;;;;;;13.13;100.00;101583.75;5077492;28;20043;-67
2022/10/30 04:42:50;;;;;;;21.83;10.48;;;;;;;13.13;100.00;101579.38;5088013;28;20020;-69
2022/10/30 04:45:15;;;;;;;21.70;9.70;;;;;;;13.13;100.00;101575.81;5091938;28;20028;-70
2022/10/30 04:47:41;;;;;;;17.65;8.98;;;;;;;13.15;100.00;101577.63;5092281;28;20114;-68
2022/10/30 04:50:06;;;;;;;21.33;10.40;;;;;;;13.16;100.00;101563.56;5089668;28;20039;-69
2022/10/30 04:52:32;;;;;;;21.42;9.88;;;;;;;13.16;100.00;101565.34;5088513;28;20500;-68
2022/10/30 04:54:57;;;;;;;21.48;10.70;;;;;;;13.15;100.00;101567.06;5091475;28;20165;-67
2022/10/30 04:57:23;;;;;;;26.38;10.63;;;;;;;13.15;100.00;101575.00;5092311;28;20064;-67
2022/10/30 04:59:48;;;;;;;21.05;10.32;;;;;;;13.15;100.00;101577.63;5091281;28;20463;-68
2022/10/30 05:02:13;;;;;;;24.85;10.00;;;;;;;13.14;100.00;101575.88;5088353;28;20031;-68
2022/10/30 05:04:38;;;;;;;24.23;10.50;;;;;;;13.11;100.00;101585.50;5090141;28;20055;-67
2022/10/30 05:07:04;;;;;;;22.83;10.10;;;;;;;13.08;100.00;101591.63;5085044;28;20027;-68
2022/10/30 05:09:29;;;;;;;19.52;9.85;;;;;;;13.04;100.00;101597.69;5077221;28;20059;-68
2022/10/30 05:11:55;;;;;;;25.60;10.98;;;;;;;13.02;100.00;101594.13;5077573;28;20064;-68
2022/10/30 05:14:20;;;;;;;17.50;10.02;;;;;;;13.03;100.00;101593.28;5090786;28;20468;-68
2022/10/30 05:16:45;;;;;;;18.83;10.23;;;;;;;12.99;100.00;101596.72;5088085;28;20372;-67
2022/10/30 05:19:11;;;;;;;25.10;9.93;;;;;;;12.99;100.00;101592.34;5091482;28;20028;-68
2022/10/30 05:21:36;;;;;;;21.13;9.73;;;;;;;12.99;100.00;101586.16;5081672;28;20028;-68
2022/10/30 05:24:01;;;;;;;22.20;9.60;;;;;;;13.00;100.00;101585.31;5092074;28;20035;-69
2022/10/30 05:26:27;;;;;;;21.67;11.40;;;;;;;13.00;100.00;101587.94;5085150;28;20023;-69
2022/10/30 05:28:52;;;;;;;16.95;10.13;;;;;;;12.99;100.00;101591.44;5090001;28;20043;-69
2022/10/30 05:31:17;;;;;;;25.40;10.00;;;;;;;12.97;100.00;101594.06;5091383;28;20019;-67
2022/10/30 05:33:43;;;;;;;27.55;10.02;;;;;;;12.98;100.00;101587.00;5095412;28;20034;-68
2022/10/30 05:36:08;;;;;;;22.08;10.65;;;;;;;12.94;100.00;101593.09;5093828;28;20066;-69
2022/10/30 05:38:34;;;;;;;23.60;10.27;;;;;;;12.86;100.00;101589.41;5095963;28;20048;-68
2022/10/30 05:40:59;;;;;;;26.90;10.68;;;;;;;12.78;100.00;101587.53;5083417;28;20119;-67
2022/10/30 05:43:24;;;;;;;29.88;9.93;;;;;;;12.72;100.00;101589.16;5082483;28;20032;-68
2022/10/30 05:45:49;;;;;;;23.23;11.35;;;;;;;12.69;100.00;101587.34;5084264;28;20052;-68
2022/10/30 05:48:15;;;;;;;18.45;9.38;;;;;;;12.69;100.00;101599.66;5095299;28;20547;-68
2022/10/30 05:50:40;;;;;;;25.30;9.27;;;;;;;12.67;100.00;101604.00;5092266;28;20491;-68
2022/10/30 05:53:06;;;;;;;20.15;10.07;;;;;;;12.63;100.00;101613.66;5092802;28;20051;-68
2022/10/30 05:55:32;;;;;;;22.27;10.00;;;;;;;12.60;100.00;101608.28;5087265;28;20062;-68
2022/10/30 05:58:02;;;;;;;15.85;8.90;;;;;;;12.60;100.00;101608.28;5082888;28;20439;-68
2022/10/30 06:00:29;;;;;;;20.95;10.20;;;;;;;12.63;100.00;101611.88;5091285;28;20028;-67
2022/10/30 06:03:03;;;;;;;19.65;10.30;;;;;;;12.64;100.00;101604.84;5094764;28;20028;-68
2022/10/30 06:05:30;;;;;;;27.65;9.93;;;;;;;12.65;100.00;101609.28;5089552;28;20364;-67
2022/10/30 06:07:56;;;;;;;19.67;9.50;;;;;;;12.65;100.00;101607.50;5095027;28;20040;-68
2022/10/30 06:10:25;;;;;;;23.55;9.55;;;;;;;12.65;100.00;101601.34;5090908;28;20027;-68
2022/10/30 06:12:54;;;;;;;24.52;11.00;;;;;;;12.65;100.00;101596.94;5094602;28;20020;-68
2022/10/30 06:15:21;;;;;;;36.53;13.35;;;;;;;12.68;100.00;101596.13;5093013;28;20386;-67
2022/10/30 06:17:46;;;;;;;20.45;10.80;;;;;;;12.67;100.00;101610.22;5095334;28;20384;-68
2022/10/30 06:20:12;;;;;;;31.20;10.43;;;;;;;12.70;100.00;101604.97;5094329;28;20062;-68
2022/10/30 06:22:38;;;;;;;25.17;10.65;;;;;;;12.67;100.00;101610.22;5094780;28;20020;-69
2022/10/30 06:25:03;;;;;;;26.80;10.32;;;;;;;12.67;100.00;101615.50;5079661;28;20033;-68
2022/10/30 06:27:29;;;;;;;21.35;9.65;;;;;;;12.64;100.00;101620.69;5091139;28;20122;-67
2022/10/30 06:29:54;;;;;;;26.70;9.85;;;;;;;12.65;100.00;101622.47;5084170;28;20103;-66
2022/10/30 06:32:21;;;;;;;27.58;10.77;;;;;;;12.65;100.00;101611.91;5088390;28;20034;-68
2022/10/30 06:34:46;;;;;;;23.67;10.25;;;;;;;12.67;100.00;101614.56;5093550;28;20085;-68
2022/10/30 06:37:11;;;;;;;27.20;11.65;;;;;;;12.68;100.00;101621.66;5094002;28;20028;-68
2022/10/30 06:39:37;;;;;;;25.15;9.98;;;;;;;12.66;100.00;101613.69;5081607;28;20102;-68
2022/10/30 06:42:02;;;;;;;24.67;11.13;;;;;;;12.64;100.00;101610.13;5086060;28;20077;-68
2022/10/30 06:44:28;;;;;;;25.35;10.52;;;;;;;12.68;100.00;101606.69;5093116;28;20024;-67
2022/10/30 06:46:53;;;;;;;22.75;10.95;;;;;;;12.68;100.00;101609.31;5091326;28;20146;-67
2022/10/30 06:49:19;;;;;;;23.13;10.77;;;;;;;12.68;100.00;101606.69;5090075;28;20036;-68
2022/10/30 06:51:45;;;;;;;20.10;11.40;;;;;;;12.68;100.00;101606.69;5084332;28;20024;-67
2022/10/30 06:54:11;;;;;;;28.85;11.55;;;;;;;12.72;100.00;101602.38;5090083;28;20464;-68
2022/10/30 06:56:36;;;;;;;29.42;11.70;;;;;;;12.75;100.00;101600.69;5093967;28;20032;-68
2022/10/30 06:59:01;;;;;;;26.30;11.75;;;;;;;12.79;100.00;101604.25;5091885;28;20051;-68
2022/10/30 07:01:27;;;;;;;36.30;11.85;;;;;;;12.85;100.00;101603.50;5087849;28;20028;-70
2022/10/30 07:03:52;;;;;;;28.98;11.43;;;;;;;12.89;100.00;101597.44;5094422;28;20387;-68
2022/10/30 07:06:17;;;;;;;27.50;12.05;;;;;;;12.95;100.00;101594.88;5090948;28;20027;-67
2022/10/30 07:08:43;;;;;;;28.25;12.77;;;;;;;12.99;100.00;101586.16;5090756;28;20426;-68
2022/10/30 07:11:08;;;;;;;23.10;11.45;;;;;;;13.05;100.00;101590.66;5090520;28;20024;-69
2022/10/30 07:13:33;;;;;;;19.63;10.63;;;;;;;13.11;100.00;101591.66;5088269;28;20043;-68
2022/10/30 07:15:59;;;;;;;28.52;13.20;;;;;;;13.16;100.00;101600.56;5080262;28;20032;-68
2022/10/30 07:18:24;;;;;;;28.10;11.20;;;;;;;13.21;100.00;101607.69;5089315;28;20051;-68
2022/10/30 07:20:55;;;;;;;29.08;12.00;;;;;;;13.24;100.00;101605.09;5077867;28;20080;-68
2022/10/30 07:23:20;;;;;;;27.17;11.30;;;;;;;13.29;100.00;101606.06;5088994;28;20035;-68
2022/10/30 07:25:46;;;;;;;21.52;10.90;;;;;;;13.32;100.00;101611.41;5090985;28;20028;-69
2022/10/30 07:28:11;;;;;;;24.83;11.55;;;;;;;13.36;100.00;101605.38;5084490;28;20024;-67
2022/10/30 07:30:36;;;;;;;23.85;11.02;;;;;;;13.39;100.00;101608.06;5089637;28;20032;-67
2022/10/30 07:33:04;;;;;;;20.42;10.93;;;;;;;13.42;100.00;101608.09;5073275;28;20361;-68
2022/10/30 07:35:31;;;;;;;26.25;12.07;;;;;;;13.46;100.00;101614.34;5079975;28;20489;-67
2022/10/30 07:38:05;;;;;;;26.02;12.23;;;;;;;13.51;100.00;101619.69;5087076;28;20356;-68
2022/10/30 07:40:31;;;;;;;21.13;10.68;;;;;;;13.56;100.00;101620.66;5088780;28;20070;-68
2022/10/30 07:42:58;;;;;;;27.15;11.93;;;;;;;13.64;100.00;101613.75;5083081;28;20025;-69
2022/10/30 07:45:23;;;;;;;26.40;10.88;;;;;;;13.69;100.00;101617.38;5088887;28;20020;-67
2022/10/30 07:47:49;;;;;;;28.60;11.70;;;;;;;13.75;100.00;101616.56;5088151;28;20080;-68
2022/10/30 07:50:14;;;;;;;30.30;11.35;;;;;;;13.82;100.00;101621.06;5089598;28;20129;-70
2022/10/30 07:52:43;;;;;;;21.65;10.90;;;;;;;13.89;100.00;101615.03;5080301;28;20519;-70
2022/10/30 07:55:08;;;;;;;23.40;11.65;;;;;;;13.97;100.00;101612.47;5085002;28;20070;-69
2022/10/30 07:57:38;;;;;;;23.50;12.48;;;;;;;14.05;100.00;101610.84;5080353;28;20420;-69
2022/10/30 08:00:05;;;;;;;22.45;11.18;;;;;;;14.12;100.00;101615.38;5073836;28;20511;-70
2022/10/30 08:02:31;;;;;;;24.92;11.13;;;;;;;14.22;100.00;101618.16;5077474;28;20043;-70
2022/10/30 08:04:56;;;;;;;28.23;11.07;;;;;;;14.31;100.00;101624.47;5080770;28;20032;-69
2022/10/30 08:07:22;;;;;;;20.95;11.20;;;;;;;14.37;100.00;101628.06;5082098;28;20056;-70
2022/10/30 08:09:48;;;;;;;21.17;10.88;;;;;;;14.43;100.00;101626.38;5075511;28;20154;-69
2022/10/30 08:12:14;;;;;;;21.92;10.48;;;;;;;14.50;100.00;101630.88;5083858;28;20404;-70
2022/10/30 08:14:39;;;;;;;28.50;11.88;;;;;;;14.55;100.00;101633.59;5081366;28;20035;-69
2022/10/30 08:17:06;;;;;;;26.08;10.93;;;;;;;14.61;100.00;101633.69;5080226;28;20032;-70
2022/10/30 08:19:31;;;;;;;27.42;10.90;;;;;;;14.67;100.00;101643.47;5086949;28;20085;-70
2022/10/30 08:21:58;;;;;;;28.33;11.25;;;;;;;14.72;100.00;101646.19;5078228;28;20024;-70
2022/10/30 08:24:23;;;;;;;21.27;10.90;;;;;;;14.83;100.00;101656.03;5091151;28;20504;-70
2022/10/30 08:26:52;;;;;;;24.67;11.65;;;;;;;14.91;100.00;101652.63;5079221;28;20100;-70
2022/10/30 08:29:17;;;;;;;24.02;10.73;;;;;;;14.99;100.00;101646.53;5072413;28;20035;-70
2022/10/30 08:31:42;;;;;;;20.33;10.73;;;;;;;15.08;100.00;101656.31;5075252;28;20025;-71
2022/10/30 08:34:08;;;;;;;24.70;12.60;;;;;;;15.15;100.00;101651.97;5079875;28;20028;-70
2022/10/30 08:36:33;;;;;;;30.25;11.88;;;;;;;15.20;100.00;101649.38;5091030;28;20032;-70
2022/10/30 08:38:59;;;;;;;21.08;11.45;;;;;;;15.26;100.00;101644.13;5079459;28;20039;-70
2022/10/30 08:41:24;;;;;;;30.23;12.05;;;;;;;15.35;100.00;101630.97;5080509;28;20016;-70
2022/10/30 08:43:49;;;;;;;21.52;11.10;;;;;;;15.43;100.00;101636.34;5083778;28;20028;-71
2022/10/30 08:46:15;;;;;;;23.52;12.18;;;;;;;15.48;100.00;101624.91;5080176;28;20008;-71
2022/10/30 08:48:40;;;;;;;18.35;10.50;;;;;;;15.57;100.00;101633.81;5088513;28;20023;-70
2022/10/30 08:51:06;;;;;;;22.70;10.70;;;;;;;15.64;100.00;101635.63;5091540;28;20024;-69
2022/10/30 08:53:31;;;;;;;25.20;12.55;;;;;;;15.68;100.00;101645.41;5091811;28;20357;-70
2022/10/30 08:55:56;;;;;;;19.05;11.50;;;;;;;15.75;100.00;101646.34;5075087;28;20079;-70
2022/10/30 08:58:22;;;;;;;21.40;11.10;;;;;;;15.76;100.00;101641.06;5084502;28;20040;-70
2022/10/30 09:00:50;;;;;;;22.38;11.90;;;;;;;15.80;100.00;101636.69;5087008;28;20067;-70
2022/10/30 09:03:15;;;;;;;21.38;11.15;;;;;;;15.84;100.00;101644.72;5090576;28;20020;-70
2022/10/30 09:05:40;;;;;;;18.48;10.88;;;;;;;15.92;100.00;101646.50;5086728;28;20036;-71
2022/10/30 09:08:06;;;;;;;27.27;11.73;;;;;;;16.01;100.00;101646.59;5087034;28;20441;-71
2022/10/30 09:10:31;;;;;;;27.17;11.10;;;;;;;16.16;100.00;101649.31;5079861;28;20025;-71
2022/10/30 09:12:58;;;;;;;22.30;10.57;;;;;;;16.34;100.00;101655.63;5095649;28;20048;-70
2022/10/30 09:15:25;;;;;;;24.95;10.68;;;;;;;16.49;100.00;101652.16;5089781;28;20036;-70
2022/10/30 09:17:58;;;;;;;25.17;10.95;;;;;;;16.63;100.00;101652.22;5095806;28;20477;-69
2022/10/30 09:20:24;;;;;;;22.92;10.90;;;;;;;16.77;100.00;101650.53;5089366;28;20107;-71
2022/10/30 09:22:49;;;;;;;18.25;10.05;;;;;;;16.94;100.00;101652.38;5091763;28;20028;-71
2022/10/30 09:25:15;;;;;;;22.30;10.80;;;;;;;17.09;100.00;101649.78;5080683;28;20082;-70
2022/10/30 09:27:41;;;;;;;22.20;9.43;;;;;;;17.26;100.00;101649.81;5083776;28;20020;-69
2022/10/30 09:30:07;;;;;;;18.25;9.65;;;;;;;17.32;100.00;101648.94;5082393;28;20104;-69
2022/10/30 09:32:32;;;;;;;22.38;9.57;;;;;;;17.33;100.00;101653.38;5092572;28;20387;-70
2022/10/30 09:34:57;;;;;;;22.30;9.98;;;;;;;17.46;100.00;101655.16;5088363;28;20075;-70
2022/10/30 09:37:23;;;;;;;23.42;10.40;;;;;;;17.62;100.00;101653.41;5078217;28;20031;-71
2022/10/30 09:39:48;;;;;;;19.35;10.07;;;;;;;17.69;100.00;101652.50;5082055;28;20024;-71
2022/10/30 09:42:36;;;;;;;21.52;9.88;;;;;;;17.78;100.00;101648.06;5092176;28;20034;-69
2022/10/30 09:45:16;;;;;;;20.83;9.70;;;;;;;18.00;100.00;101644.53;5080833;28;20024;-70
2022/10/30 09:48:05;;;;;;;29.48;9.48;;;;;;;18.17;100.00;101641.84;5085501;28;20085;-70
2022/10/30 09:50:56;;;;;;;28.67;9.90;;;;;;;18.41;100.00;101642.66;5087451;28;20123;-70
2022/10/30 09:53:29;;;;;;;20.77;9.63;;;;;;;18.57;100.00;101645.28;5089217;28;20030;-71
2022/10/30 09:56:07;;;;;;;18.92;8.90;;;;;;;18.71;100.00;101654.09;5094845;28;20031;-71
2022/10/30 09:59:13;;;;;;;18.23;8.60;;;;;;;18.92;100.00;101657.59;5089151;28;20033;-70
2022/10/30 10:01:51;;;;;;;20.23;8.98;;;;;;;19.09;100.00;101653.06;5082279;28;20490;-69
2022/10/30 10:04:33;;;;;;;24.30;8.27;;;;;;;19.16;100.00;101651.25;5080297;28;20020;-71
2022/10/30 10:07:03;;;;;;;18.65;8.50;;;;;;;19.23;100.00;101636.09;5086626;28;20529;-70
2022/10/30 10:09:36;;;;;;;23.67;9.10;;;;;;;19.30;100.00;101637.81;5094177;28;20498;-70
2022/10/30 10:12:12;;;;;;;22.25;8.02;;;;;;;19.26;100.00;101644.06;5088693;28;20085;-70
2022/10/30 10:14:45;;;;;;;17.25;8.35;;;;;;;19.55;100.00;101650.06;5085891;28;20024;-71
2022/10/30 10:17:14;;;;;;;21.40;7.72;;;;;;;19.95;100.00;101642.66;5085144;28;20028;-69
2022/10/30 10:19:58;;;;;;;26.65;8.95;;;;;;;20.32;100.00;101652.94;5087319;28;20031;-68
2022/10/30 10:22:43;;;;;;;13.85;7.05;;;;;;;20.68;100.00;101654.31;5088050;28;20633;-70
2022/10/30 10:25:13;;;;;;;16.70;7.40;;;;;;;21.02;100.00;101650.31;5090041;28;20024;-68
2022/10/30 10:28:13;;;;;;;24.88;7.72;;;;;;;20.95;99.58;101648.66;5076938;28;20025;-69
2022/10/30 10:31:18;;;;;;;12.48;6.45;;;;;;;21.39;100.00;101639.97;5075442;28;20028;-70
2022/10/30 10:33:54;;;;;;;20.40;7.07;;;;;;;21.59;95.03;101646.81;5040057;28;20094;-69
2022/10/30 10:36:51;;;;;;;19.25;6.40;;;;;;;21.98;94.49;101648.84;5074703;28;20078;-69
2022/10/30 10:39:41;;;;;;;14.75;7.10;;;;;;;22.14;91.35;101639.59;5079476;28;20099;-69
2022/10/30 10:42:32;;;;;;;18.52;7.28;;;;;;;22.08;89.28;101637.00;5088706;28;20035;-69
2022/10/30 10:45:12;;;;;;;13.52;7.55;;;;;;;21.90;90.57;101641.81;5073627;28;20020;-68
2022/10/30 10:47:44;;;;;;;16.40;7.80;;;;;;;22.11;92.33;101650.38;5082760;28;20059;-69
2022/10/30 10:50:30;;;;;;;21.00;6.85;;;;;;;22.21;93.52;101643.03;5093158;28;20039;-68
2022/10/30 10:53:04;;;;;;;21.23;7.00;;;;;;;22.28;94.60;101633.97;5088606;28;20085;-69
2022/10/30 10:55:35;;;;;;;14.00;6.30;;;;;;;22.11;89.09;101633.41;5078489;28;20420;-71
2022/10/30 10:58:26;;;;;;;17.85;6.47;;;;;;;22.23;90.02;101636.75;5087754;28;20048;-70
2022/10/30 11:00:52;;;;;;;18.13;7.00;;;;;;;22.17;88.62;101633.28;5075768;28;20008;-70
2022/10/30 11:03:26;;;;;;;16.25;6.90;;;;;;;21.84;88.06;101632.97;5083797;28;20046;-69
2022/10/30 11:06:03;;;;;;;24.85;7.03;;;;;;;21.65;91.11;101625.28;5077424;28;20100;-70
2022/10/30 11:08:38;;;;;;;19.75;7.32;;;;;;;21.52;93.02;101623.69;5078459;28;20056;-70
2022/10/30 11:11:14;;;;;;;16.98;6.35;;;;;;;21.23;95.31;101625.94;5083275;28;20024;-70
2022/10/30 11:13:46;;;;;;;20.92;7.38;;;;;;;21.02;97.29;101623.56;5088602;28;20021;-70
2022/10/30 11:16:57;;;;;;;13.95;7.10;;;;;;;21.25;98.29;101608.97;5075689;28;20028;-70